createdAt,value
2022-12-16T00:01:28.507Z,94948.25
2022-12-16T00:03:58.093Z,94954.97
2022-12-16T00:06:29.620Z,94954.44
2022-12-16T00:08:56.873Z,94965.34
2022-12-16T00:11:23.848Z,94959.19
2022-12-16T00:13:50.950Z,94966.09
2022-12-16T00:16:21.103Z,94967.31
2022-12-16T00:18:48.230Z,94968.56
2022-12-16T00:21:15.392Z,94973.13
2022-12-16T00:23:42.185Z,94969.66
2022-12-16T00:26:09.361Z,94976.81
2022-12-16T00:28:36.746Z,94972.16
2022-12-16T00:31:04.484Z,94970.53
2022-12-16T00:33:32.235Z,94974.47
2022-12-16T00:35:59.267Z,94972.88
2022-12-16T00:38:26.897Z,94976.81
2022-12-16T00:40:53.820Z,94983.19
2022-12-16T00:43:20.934Z,94982.63
2022-12-16T00:45:48.837Z,94983.25
2022-12-16T00:48:16.803Z,94980.47
2022-12-16T00:50:55.238Z,94989.41
2022-12-16T00:53:24.628Z,94979.66
2022-12-16T00:55:53.019Z,94982.88
2022-12-16T00:58:20.533Z,94994.56
2022-12-16T01:00:47.376Z,94993.63
2022-12-16T01:03:19.401Z,94992.81
2022-12-16T01:05:48.153Z,94994.69
2022-12-16T01:08:14.967Z,95001.50
2022-12-16T01:10:41.735Z,95006.69
2022-12-16T01:13:08.530Z,95001.59
2022-12-16T01:15:37.587Z,95002.56
2022-12-16T01:18:04.929Z,95010.56
2022-12-16T01:20:34.362Z,95007.75
2022-12-16T01:23:01.174Z,95006.78
2022-12-16T01:25:28.339Z,95010.63
2022-12-16T01:27:55.149Z,95014.03
2022-12-16T01:30:22.205Z,95018.50
2022-12-16T01:32:49.008Z,95013.16
2022-12-16T01:35:44.202Z,95015.38
2022-12-16T01:38:02.685Z,95020.66
2022-12-16T01:40:30.163Z,95019.38
2022-12-16T01:42:56.948Z,95031.53
2022-12-16T01:45:35.950Z,95025.03
2022-12-16T01:48:38.687Z,95021.78
2022-12-16T01:51:16.214Z,95027.94
2022-12-16T01:53:44.639Z,95022.44
2022-12-16T01:56:15.543Z,95017.53
2022-12-16T01:58:44.357Z,95014.72
2022-12-16T02:01:11.192Z,95021.78
2022-12-16T02:03:39.679Z,95019.22
2022-12-16T02:06:07.143Z,95025.63
2022-12-16T02:08:34.313Z,95027.41
2022-12-16T02:11:11.958Z,95029.75
2022-12-16T02:14:26.265Z,95042.53
2022-12-16T02:17:22.358Z,95034.34
2022-12-16T02:20:21.726Z,95034.34
2022-12-16T02:23:33.371Z,95033.22
2022-12-16T02:26:52.324Z,95035.16
2022-12-16T02:29:37.113Z,95030.34
2022-12-16T02:32:16.870Z,95040.88
2022-12-16T02:35:15.199Z,95038.28
2022-12-16T02:37:56.918Z,95047.03
2022-12-16T02:40:44.249Z,95043.25
2022-12-16T02:43:48.950Z,95053.50
2022-12-16T02:46:17.618Z,95053.75
2022-12-16T02:48:44.422Z,95056.34
2022-12-16T02:51:11.471Z,95060.88
2022-12-16T02:53:41.335Z,95053.75
2022-12-16T02:56:27.485Z,95050.16
2022-12-16T02:59:42.230Z,95049.53
2022-12-16T03:02:25.835Z,95060.91
2022-12-16T03:05:04.429Z,95066.16
2022-12-16T03:07:36.435Z,95074.56
2022-12-16T03:10:06.997Z,95088.13
2022-12-16T03:12:38.199Z,95079.03
2022-12-16T03:15:07.692Z,95082.47
2022-12-16T03:17:37.235Z,95087.78
2022-12-16T03:20:14.215Z,95078.22
2022-12-16T03:22:44.691Z,95083.53
2022-12-16T03:25:11.877Z,95091.69
2022-12-16T03:28:07.645Z,95084.94
2022-12-16T03:30:41.883Z,95099.56
2022-12-16T03:33:17.536Z,95109.16
2022-12-16T03:36:11.037Z,95099.72
2022-12-16T03:38:39.517Z,95096.63
2022-12-16T03:41:07.964Z,95096.31
2022-12-16T03:43:35.320Z,95090.75
2022-12-16T03:46:06.636Z,95093.19
2022-12-16T03:48:34.034Z,95094.00
2022-12-16T03:51:01.234Z,95083.97
2022-12-16T03:53:28.101Z,95083.84
2022-12-16T03:55:55.269Z,95089.22
2022-12-16T03:58:22.049Z,95089.09
2022-12-16T04:00:48.940Z,95099.59
2022-12-16T04:03:15.905Z,95098.31
2022-12-16T04:05:42.847Z,95098.00
2022-12-16T04:08:09.645Z,95098.00
2022-12-16T04:10:54.837Z,95101.91
2022-12-16T04:13:40.185Z,95094.72
2022-12-16T04:16:31.617Z,95107.34
2022-12-16T04:19:17.317Z,95105.59
2022-12-16T04:22:02.802Z,95102.34
2022-12-16T04:24:30.640Z,95109.59
2022-12-16T04:27:16.240Z,95108.31
2022-12-16T04:30:02.452Z,95113.81
2022-12-16T04:32:53.050Z,95116.06
2022-12-16T04:35:38.603Z,95124.81
2022-12-16T04:38:24.202Z,95135.81
2022-12-16T04:41:09.757Z,95140.66
2022-12-16T04:43:55.314Z,95144.19
2022-12-16T04:46:40.653Z,95150.31
2022-12-16T04:49:26.118Z,95161.03
2022-12-16T04:52:12.041Z,95169.75
2022-12-16T04:54:57.402Z,95165.25
2022-12-16T04:57:42.887Z,95165.25
2022-12-16T05:00:29.390Z,95178.19
2022-12-16T05:03:15.971Z,95185.69
2022-12-16T05:06:01.384Z,95191.84
2022-12-16T05:08:46.890Z,95182.78
2022-12-16T05:11:32.410Z,95182.44
2022-12-16T05:14:17.671Z,95188.28
2022-12-16T05:17:03.133Z,95187.16
2022-12-16T05:19:48.462Z,95186.31
2022-12-16T05:22:33.899Z,95205.13
2022-12-16T05:25:19.288Z,95208.50
2022-12-16T05:28:10.181Z,95211.59
2022-12-16T05:30:55.826Z,95211.91
2022-12-16T05:33:41.995Z,95216.78
2022-12-16T05:36:27.856Z,95213.19
2022-12-16T05:39:13.320Z,95213.03
2022-12-16T05:41:58.662Z,95222.56
2022-12-16T05:44:44.221Z,95225.16
2022-12-16T05:47:29.873Z,95218.34
2022-12-16T05:50:15.281Z,95223.22
2022-12-16T05:53:07.587Z,95233.41
2022-12-16T05:55:53.090Z,95229.38
2022-12-16T05:58:38.606Z,95232.59
2022-12-16T06:01:24.526Z,95232.59
2022-12-16T06:04:15.541Z,95231.31
2022-12-16T06:07:03.180Z,95235.19
2022-12-16T06:09:53.110Z,95249.13
2022-12-16T06:12:42.204Z,95255.25
2022-12-16T06:15:28.679Z,95256.69
2022-12-16T06:18:14.587Z,95265.91
2022-12-16T06:20:59.941Z,95273.00
2022-12-16T06:23:45.554Z,95280.13
2022-12-16T06:26:31.084Z,95275.75
2022-12-16T06:29:16.380Z,95279.81
2022-12-16T06:32:02.045Z,95279.34
2022-12-16T06:34:47.486Z,95291.75
2022-12-16T06:37:32.729Z,95296.28
2022-12-16T06:40:31.825Z,95301.94
2022-12-16T06:43:17.252Z,95303.38
2022-12-16T06:46:03.013Z,95309.88
2022-12-16T06:48:48.486Z,95319.25
2022-12-16T06:51:34.030Z,95320.53
2022-12-16T06:54:19.440Z,95328.28
2022-12-16T06:57:04.789Z,95334.75
2022-12-16T06:59:50.205Z,95339.59
2022-12-16T07:02:35.722Z,95344.78
2022-12-16T07:05:21.877Z,95355.75
2022-12-16T07:08:09.536Z,95363.53
2022-12-16T07:10:59.513Z,95365.59
2022-12-16T07:13:54.699Z,95359.31
2022-12-16T07:16:40.204Z,95366.25
2022-12-16T07:19:25.506Z,95363.53
2022-12-16T07:22:10.890Z,95367.41
2022-12-16T07:24:56.215Z,95377.44
2022-12-16T07:27:41.514Z,95379.69
2022-12-16T07:30:27.290Z,95383.91
2022-12-16T07:33:17.221Z,95386.16
2022-12-16T07:36:02.693Z,95400.72
2022-12-16T07:38:48.030Z,95395.53
2022-12-16T07:41:33.526Z,95412.66
2022-12-16T07:44:18.840Z,95413.00
2022-12-16T07:47:04.245Z,95419.28
2022-12-16T07:49:49.559Z,95422.88
2022-12-16T07:52:35.036Z,95421.72
2022-12-16T07:55:20.577Z,95431.13
2022-12-16T07:58:11.500Z,95433.69
2022-12-16T08:00:57.030Z,95439.53
2022-12-16T08:04:02.310Z,95442.41
2022-12-16T08:06:48.046Z,95440.47
2022-12-16T08:09:33.051Z,95447.47
2022-12-16T08:12:18.417Z,95451.81
2022-12-16T08:15:03.715Z,95448.41
2022-12-16T08:17:49.315Z,95453.75
2022-12-16T08:20:34.586Z,95449.88
2022-12-16T08:23:19.741Z,95457.31
2022-12-16T08:26:04.993Z,95455.38
2022-12-16T08:28:50.339Z,95461.50
2022-12-16T08:31:35.701Z,95473.03
2022-12-16T08:34:21.286Z,95472.84
2022-12-16T08:37:06.360Z,95477.53
2022-12-16T08:40:17.703Z,95475.41
2022-12-16T08:42:57.476Z,95478.66
2022-12-16T08:45:43.437Z,95489.53
2022-12-16T08:48:29.678Z,95491.94
2022-12-16T08:51:20.068Z,95486.88
2022-12-16T08:54:05.489Z,95486.28
2022-12-16T08:56:51.471Z,95493.72
2022-12-16T08:59:36.834Z,95499.69
2022-12-16T09:02:22.979Z,95511.66
2022-12-16T09:05:08.919Z,95519.13
2022-12-16T09:07:54.391Z,95521.53
2022-12-16T09:10:40.989Z,95522.38
2022-12-16T09:13:30.398Z,95519.13
2022-12-16T09:16:19.510Z,95521.06
2022-12-16T09:19:05.619Z,95533.19
2022-12-16T09:21:52.001Z,95538.53
2022-12-16T09:24:37.377Z,95547.63
2022-12-16T09:27:22.888Z,95548.56
2022-12-16T09:30:08.441Z,95548.25
2022-12-16T09:32:54.215Z,95551.16
2022-12-16T09:35:39.559Z,95548.25
2022-12-16T09:38:25.096Z,95555.38
2022-12-16T09:41:10.601Z,95558.78
2022-12-16T09:44:20.201Z,95561.19
2022-12-16T09:47:44.468Z,95575.78
2022-12-16T09:50:43.999Z,95573.19
2022-12-16T09:53:33.695Z,95582.13
2022-12-16T09:56:24.692Z,95584.84
2022-12-16T09:59:19.513Z,95581.78
2022-12-16T10:02:05.364Z,95586.78
2022-12-16T10:04:51.111Z,95592.63
2022-12-16T10:07:41.532Z,95586.13
2022-12-16T10:11:01.527Z,95594.38
2022-12-16T10:14:14.484Z,95594.56
2022-12-16T10:17:45.861Z,95607.03
2022-12-16T10:20:57.039Z,95600.72
2022-12-16T10:24:03.504Z,95603.94
2022-12-16T10:27:12.319Z,95610.44
2022-12-16T10:30:02.147Z,95614.47
2022-12-16T10:33:01.753Z,95611.56
2022-12-16T10:35:55.637Z,95618.53
2022-12-16T10:38:56.119Z,95610.94
2022-12-16T10:41:52.541Z,95619.16
2022-12-16T10:45:12.504Z,95631.75
2022-12-16T10:47:57.896Z,95626.63
2022-12-16T10:50:43.566Z,95621.75
2022-12-16T10:53:50.905Z,95636.97
2022-12-16T10:57:10.479Z,95629.53
2022-12-16T10:59:59.286Z,95626.94
2022-12-16T11:02:47.559Z,95628.59
2022-12-16T11:05:52.054Z,95630.00
2022-12-16T11:08:51.397Z,95633.13
2022-12-16T11:11:42.743Z,95641.84
2022-12-16T11:15:05.829Z,95647.06
2022-12-16T11:17:48.600Z,95644.47
2022-12-16T11:20:40.750Z,95645.09
2022-12-16T11:23:38.844Z,95644.78
2022-12-16T11:26:38.547Z,95639.59
2022-12-16T11:29:35.133Z,95640.22
2022-12-16T11:32:37.607Z,95644.13
2022-12-16T11:35:31.153Z,95649.31
2022-12-16T11:38:17.577Z,95643.81
2022-12-16T11:41:02.615Z,95646.38
2022-12-16T11:43:48.865Z,95649.94
2022-12-16T11:46:55.918Z,95647.53
2022-12-16T11:49:52.031Z,95655.78
2022-12-16T11:52:40.489Z,95646.72
2022-12-16T11:59:06.730Z,95653.53
2022-12-16T12:01:59.881Z,95661.63
2022-12-16T12:04:45.323Z,95660.97
2022-12-16T12:07:55.455Z,95655.16
2022-12-16T12:11:04.095Z,95663.72
2022-12-16T12:14:37.441Z,95663.56
2022-12-16T12:17:45.039Z,95677.50
2022-12-16T12:21:18.246Z,95682.66
2022-12-16T12:24:44.858Z,95686.25
2022-12-16T12:27:49.708Z,95684.63
2022-12-16T12:30:38.776Z,95679.94
2022-12-16T12:34:09.617Z,95686.25
2022-12-16T12:37:08.102Z,95684.63
2022-12-16T12:40:13.022Z,95688.19
2022-12-16T12:43:06.778Z,95693.38
2022-12-16T12:46:16.333Z,95677.16
2022-12-16T12:49:35.192Z,95678.31
2022-12-16T12:52:37.927Z,95685.59
2022-12-16T12:55:44.348Z,95695.31
2022-12-16T12:58:31.723Z,95694.31
2022-12-16T13:01:19.157Z,95697.25
2022-12-16T13:04:18.976Z,95693.06
2022-12-16T13:07:04.998Z,95698.22
2022-12-16T13:09:57.917Z,95704.38
2022-12-16T13:12:46.357Z,95709.25
2022-12-16T13:15:58.136Z,95715.56
2022-12-16T13:18:48.499Z,95716.88
2022-12-16T13:22:02.380Z,95728.13
2022-12-16T13:25:10.173Z,95729.53
2022-12-16T13:28:34.135Z,95732.81
2022-12-16T13:31:25.942Z,95732.78
2022-12-16T13:34:13.957Z,95729.53
2022-12-16T13:37:00.500Z,95743.81
2022-12-16T13:39:48.930Z,95747.66
2022-12-16T13:42:58.835Z,95752.34
2022-12-16T13:45:57.611Z,95765.50
2022-12-16T13:48:59.443Z,95773.78
2022-12-16T13:51:56.218Z,95783.31
2022-12-16T13:54:51.923Z,95788.72
2022-12-16T13:57:41.010Z,95793.25
2022-12-16T14:00:42.796Z,95799.47
2022-12-16T14:04:06.522Z,95797.63
2022-12-16T14:06:56.799Z,95803.16
2022-12-16T14:09:57.209Z,95800.88
2022-12-16T14:13:16.133Z,95807.97
2022-12-16T14:16:58.859Z,95817.78
2022-12-16T14:20:13.439Z,95814.38
2022-12-16T14:23:39.290Z,95837.09
2022-12-16T14:26:29.913Z,95835.16
2022-12-16T14:29:15.028Z,95835.53
2022-12-16T14:32:02.657Z,95841.84
2022-12-16T14:34:51.985Z,95843.38
2022-12-16T14:37:53.776Z,95852.91
2022-12-16T14:40:49.233Z,95845.00
2022-12-16T14:43:43.610Z,95858.28
2022-12-16T14:46:49.734Z,95853.25
2022-12-16T14:49:41.616Z,95866.13
2022-12-16T14:52:44.005Z,95875.97
2022-12-16T14:55:33.335Z,95874.13
2022-12-16T14:58:41.124Z,95871.22
2022-12-16T15:01:43.907Z,95879.22
2022-12-16T15:04:39.910Z,95885.59
2022-12-16T15:07:47.869Z,95889.03
2022-12-16T15:10:34.221Z,95883.59
2022-12-16T15:13:19.862Z,95890.22
2022-12-16T15:16:07.352Z,95899.13
2022-12-16T15:19:04.540Z,95896.25
2022-12-16T15:21:53.296Z,95902.91
2022-12-16T15:24:43.262Z,95908.34
2022-12-16T15:27:32.549Z,95912.94
2022-12-16T15:30:17.977Z,95912.94
2022-12-16T15:33:12.245Z,95915.16
2022-12-16T15:35:57.897Z,95919.50
2022-12-16T15:38:50.357Z,95915.44
2022-12-16T15:41:49.638Z,95919.00
2022-12-16T15:44:43.946Z,95928.22
2022-12-16T15:47:54.661Z,95938.94
2022-12-16T15:50:46.590Z,95942.41
2022-12-16T15:53:54.721Z,95947.13
2022-12-16T15:56:44.417Z,95956.31
2022-12-16T15:59:56.899Z,95956.34
2022-12-16T16:02:48.723Z,95965.56
2022-12-16T16:05:41.248Z,95965.28
2022-12-16T16:08:29.178Z,95971.41
2022-12-16T16:11:14.665Z,95976.97
2022-12-16T16:14:05.996Z,95981.03
2022-12-16T16:16:54.915Z,95981.28
2022-12-16T16:19:43.704Z,95974.06
2022-12-16T16:22:43.425Z,95982.16
2022-12-16T16:25:31.034Z,95988.50
2022-12-16T16:28:16.386Z,95993.44
2022-12-16T16:31:01.932Z,95987.50
2022-12-16T16:33:57.740Z,95990.19
2022-12-16T16:36:43.188Z,95997.00
2022-12-16T16:39:28.669Z,95997.91
2022-12-16T16:42:14.296Z,95996.44
2022-12-16T16:44:59.751Z,95996.44
2022-12-16T16:47:45.065Z,96005.91
2022-12-16T16:50:34.124Z,96008.56
2022-12-16T16:53:19.648Z,96013.91
2022-12-16T16:56:05.107Z,96018.91
2022-12-16T16:58:52.958Z,96015.09
2022-12-16T17:01:38.960Z,96028.28
2022-12-16T17:04:24.268Z,96028.41
2022-12-16T17:07:09.633Z,96028.59
2022-12-16T17:09:54.921Z,96034.56
2022-12-16T17:12:45.535Z,96036.16
2022-12-16T17:15:44.044Z,96036.59
2022-12-16T17:18:29.446Z,96045.94
2022-12-16T17:21:14.840Z,96055.22
2022-12-16T17:24:00.222Z,96059.53
2022-12-16T17:26:45.699Z,96058.16
2022-12-16T17:29:43.306Z,96063.31
2022-12-16T17:32:29.814Z,96073.59
2022-12-16T17:35:15.887Z,96075.81
2022-12-16T17:38:01.640Z,96082.06
2022-12-16T17:40:47.122Z,96082.63
2022-12-16T17:43:33.075Z,96094.59
2022-12-16T17:46:24.839Z,96098.13
2022-12-16T17:49:12.222Z,96102.19
2022-12-16T17:51:57.732Z,96103.69
2022-12-16T17:54:43.028Z,96110.13
2022-12-16T17:57:29.229Z,96122.09
2022-12-16T18:00:14.738Z,96109.28
2022-12-16T18:03:00.851Z,96108.75
2022-12-16T18:05:46.741Z,96118.81
2022-12-16T18:08:32.690Z,96116.81
2022-12-16T18:11:18.132Z,96113.91
2022-12-16T18:14:03.645Z,96112.97
2022-12-16T18:16:49.493Z,96117.31
2022-12-16T18:19:36.186Z,96120.97
2022-12-16T18:22:22.584Z,96128.97
2022-12-16T18:25:08.069Z,96136.75
2022-12-16T18:27:55.579Z,96139.72
2022-12-16T18:30:40.963Z,96145.44
2022-12-16T18:33:27.784Z,96143.88
2022-12-16T18:36:13.622Z,96153.38
2022-12-16T18:38:58.980Z,96158.56
2022-12-16T18:41:44.809Z,96163.47
2022-12-16T18:44:33.316Z,96162.41
2022-12-16T18:47:19.312Z,96173.00
2022-12-16T18:50:05.072Z,96172.31
2022-12-16T18:52:50.437Z,96165.88
2022-12-16T18:55:35.918Z,96175.16
2022-12-16T18:58:49.830Z,96188.50
2022-12-16T19:01:30.002Z,96190.97
2022-12-16T19:04:16.429Z,96195.34
2022-12-16T19:07:02.032Z,96195.59
2022-12-16T19:09:47.472Z,96205.69
2022-12-16T19:12:32.953Z,96206.91
2022-12-16T19:15:18.402Z,96200.34
2022-12-16T19:18:03.748Z,96209.88
2022-12-16T19:20:49.058Z,96202.94
2022-12-16T19:23:34.981Z,96216.97
2022-12-16T19:26:20.427Z,96208.13
2022-12-16T19:29:05.890Z,96219.53
2022-12-16T19:31:51.883Z,96212.19
2022-12-16T19:34:37.205Z,96226.78
2022-12-16T19:37:22.727Z,96228.66
2022-12-16T19:40:08.186Z,96227.97
2022-12-16T19:42:54.607Z,96226.09
2022-12-16T19:45:41.170Z,96231.25
2022-12-16T19:48:26.573Z,96235.34
2022-12-16T19:51:19.847Z,96237.78
2022-12-16T19:54:06.279Z,96239.44
2022-12-16T19:56:52.513Z,96243.50
2022-12-16T19:59:40.611Z,96259.81
2022-12-16T20:02:29.841Z,96253.69
2022-12-16T20:05:15.537Z,96251.13
2022-12-16T20:08:00.945Z,96257.38
2022-12-16T20:10:46.261Z,96258.75
2022-12-16T20:13:32.335Z,96265.81
2022-12-16T20:16:26.352Z,96270.16
2022-12-16T20:19:12.291Z,96282.16
2022-12-16T20:22:00.693Z,96292.50
2022-12-16T20:24:49.844Z,96295.75
2022-12-16T20:27:35.107Z,96299.56
2022-12-16T20:30:20.583Z,96305.00
2022-12-16T20:33:06.445Z,96312.34
2022-12-16T20:35:51.699Z,96321.47
2022-12-16T20:38:37.132Z,96321.06
2022-12-16T20:41:23.551Z,96319.41
2022-12-16T20:44:09.682Z,96326.22
2022-12-16T20:46:56.537Z,96327.19
2022-12-16T20:49:42.396Z,96324.03
2022-12-16T20:52:28.461Z,96323.25
2022-12-16T20:55:14.374Z,96338.22
2022-12-16T20:57:59.593Z,96341.59
2022-12-16T21:00:45.085Z,96342.53
2022-12-16T21:03:30.441Z,96353.41
2022-12-16T21:06:16.016Z,96351.22
2022-12-16T21:09:01.589Z,96350.00
2022-12-16T21:11:47.506Z,96364.28
2022-12-16T21:14:32.928Z,96363.75
2022-12-16T21:17:18.010Z,96373.53
2022-12-16T21:20:03.418Z,96372.38
2022-12-16T21:22:48.478Z,96382.47
2022-12-16T21:25:34.069Z,96379.47
2022-12-16T21:28:19.610Z,96388.47
2022-12-16T21:31:06.996Z,96386.28
2022-12-16T21:33:52.510Z,96384.66
2022-12-16T21:36:38.108Z,96402.84
2022-12-16T21:39:23.554Z,96401.63
2022-12-16T21:42:08.969Z,96402.19
2022-12-16T21:44:56.325Z,96408.03
2022-12-16T21:47:42.281Z,96416.75
2022-12-16T21:50:28.426Z,96425.81
2022-12-16T21:53:13.710Z,96424.06
2022-12-16T21:55:59.220Z,96425.03
2022-12-16T21:58:44.545Z,96433.44
2022-12-16T22:01:30.033Z,96441.88
2022-12-16T22:04:15.478Z,96438.50
2022-12-16T22:07:00.748Z,96438.50
2022-12-16T22:09:46.119Z,96441.47
2022-12-16T22:12:31.130Z,96447.81
2022-12-16T22:15:16.417Z,96446.63
2022-12-16T22:18:01.995Z,96458.25
2022-12-16T22:20:47.499Z,96466.69
2022-12-16T22:23:33.017Z,96469.19
2022-12-16T22:26:20.057Z,96475.81
2022-12-16T22:29:06.085Z,96482.94
2022-12-16T22:31:51.437Z,96473.50
2022-12-16T22:34:37.286Z,96482.69
2022-12-16T22:37:22.715Z,96477.03
2022-12-16T22:40:07.873Z,96493.88
2022-12-16T22:42:53.325Z,96489.03
2022-12-16T22:45:41.922Z,96488.59
2022-12-16T22:48:29.919Z,96492.81
2022-12-16T22:51:15.306Z,96494.41
2022-12-16T22:54:00.968Z,96493.97
2022-12-16T22:56:46.292Z,96496.63
2022-12-16T22:59:31.738Z,96502.16
2022-12-16T23:02:17.077Z,96502.28
2022-12-16T23:05:02.598Z,96498.81
2022-12-16T23:07:47.785Z,96501.16
2022-12-16T23:10:33.243Z,96505.13
2022-12-16T23:13:18.669Z,96512.47
2022-12-16T23:16:06.672Z,96510.50
2022-12-16T23:18:52.080Z,96517.31
2022-12-16T23:21:38.547Z,96510.78
2022-12-16T23:24:24.395Z,96513.25
2022-12-16T23:27:09.959Z,96515.94
2022-12-16T23:32:30.682Z,96522.75
2022-12-16T23:33:00.759Z,96531.44
2022-12-16T23:35:46.149Z,96532.44
2022-12-16T23:38:31.673Z,96529.41
2022-12-16T23:41:17.740Z,96532.44
2022-12-16T23:44:03.971Z,96538.97
2022-12-16T23:46:49.356Z,96532.75
2022-12-16T23:49:34.645Z,96534.91
2022-12-16T23:52:19.950Z,96538.53
2022-12-16T23:55:05.336Z,96538.28
2022-12-16T23:57:50.811Z,96544.88
